Time,TemperatureF,DewpointF,PressureIn,WindDirection,WindDirectionDegrees,WindSpeedMPH,WindSpeedGustMPH,Humidity,HourlyPrecipIn,Conditions,Clouds,dailyrainin,SoftwareType,DateUTC
2013-05-29 00:13:00,60.3,53.0,30.18,ESE,115,0.0,5.0,77,0.00,,,0.00,weatherlink.com 1.10,2013-05-29 04:13:00,
2013-05-29 00:28:00,60.4,54.0,30.17,ESE,107,0.0,4.0,78,0.00,,,0.00,weatherlink.com 1.10,2013-05-29 04:28:00,
2013-05-29 00:43:00,60.4,54.0,30.17,ESE,102,0.0,3.0,78,0.00,,,0.00,weatherlink.com 1.10,2013-05-29 04:43:00,
2013-05-29 00:58:00,60.3,53.0,30.17,ESE,107,0.0,4.0,78,0.00,,,0.00,weatherlink.com 1.10,2013-05-29 04:58:00,
2013-05-29 01:13:00,60.3,54.0,30.16,ESE,105,2.0,3.0,79,0.00,,,0.00,weatherlink.com 1.10,2013-05-29 05:13:00,
2013-05-29 01:28:00,60.4,55.0,30.15,SW,217,0.0,4.0,81,0.00,,,0.00,weatherlink.com 1.10,2013-05-29 05:28:00,
2013-05-29 01:43:00,60.5,55.0,30.16,ESE,119,0.0,4.0,82,0.00,,,0.00,weatherlink.com 1.10,2013-05-29 05:43:00,
2013-05-29 01:58:00,60.4,55.0,30.15,East,84,1.0,4.0,83,0.00,,,0.00,weatherlink.com 1.10,2013-05-29 05:58:00,
2013-05-29 02:13:00,60.3,55.0,30.15,ESE,105,0.0,5.0,83,0.00,,,0.00,weatherlink.com 1.10,2013-05-29 06:13:00,
2013-05-29 02:28:00,60.1,55.0,30.14,WNW,287,3.0,7.0,84,0.00,,,0.00,weatherlink.com 1.10,2013-05-29 06:28:00,
2013-05-29 02:43:00,59.9,55.0,30.14,East,99,0.0,4.0,85,0.00,,,0.00,weatherlink.com 1.10,2013-05-29 06:43:00,
2013-05-29 02:58:00,59.6,56.0,30.13,East,101,0.0,5.0,87,0.00,,,0.00,weatherlink.com 1.10,2013-05-29 06:58:00,
2013-05-29 03:13:00,59.3,56.0,30.13,West,279,1.0,1.0,89,0.00,,,0.00,weatherlink.com 1.10,2013-05-29 07:13:00,
2013-05-29 03:28:00,59.0,56.0,30.13,SE,144,0.0,2.0,90,0.00,,,0.00,weatherlink.com 1.10,2013-05-29 07:28:00,
2013-05-29 03:43:00,58.8,56.0,30.12,East,101,0.0,3.0,91,0.00,,,0.00,weatherlink.com 1.10,2013-05-29 07:43:00,
2013-05-29 03:59:00,58.6,56.0,30.11,SE,130,0.0,4.0,92,0.00,,,0.00,weatherlink.com 1.10,2013-05-29 07:59:00,
2013-05-29 04:14:00,58.5,57.0,30.11,East,97,1.0,3.0,93,0.02,,,0.02,weatherlink.com 1.10,2013-05-29 08:14:00,
2013-05-29 04:29:00,58.6,57.0,30.11,ESE,114,0.0,1.0,94,0.04,,,0.04,weatherlink.com 1.10,2013-05-29 08:29:00,
2013-05-29 04:44:00,58.6,57.0,30.10,South,170,0.0,2.0,94,0.05,,,0.05,weatherlink.com 1.10,2013-05-29 08:44:00,
2013-05-29 04:59:00,58.6,57.0,30.11,ESE,110,0.0,3.0,94,0.06,,,0.06,weatherlink.com 1.10,2013-05-29 08:59:00,
2013-05-29 05:14:00,58.6,57.0,30.10,ESE,120,0.0,2.0,94,0.08,,,0.10,weatherlink.com 1.10,2013-05-29 09:14:00,
2013-05-29 05:29:00,58.6,57.0,30.10,SE,132,0.0,2.0,94,0.11,,,0.15,weatherlink.com 1.10,2013-05-29 09:29:00,
2013-05-29 05:44:00,58.5,57.0,30.10,SE,134,0.0,2.0,94,0.16,,,0.21,weatherlink.com 1.10,2013-05-29 09:44:00,
2013-05-29 05:59:00,58.6,57.0,30.11,ESE,109,0.0,1.0,95,0.21,,,0.27,weatherlink.com 1.10,2013-05-29 09:59:00,
2013-05-29 06:14:00,58.7,57.0,30.11,WNW,283,0.0,2.0,95,0.23,,,0.33,weatherlink.com 1.10,2013-05-29 10:14:00,
2013-05-29 06:29:00,58.6,57.0,30.09,ESE,116,0.0,2.0,95,0.23,,,0.38,weatherlink.com 1.10,2013-05-29 10:29:00,
2013-05-29 06:44:00,58.6,57.0,30.10,NW,312,1.0,1.0,95,0.19,,,0.40,weatherlink.com 1.10,2013-05-29 10:44:00,
2013-05-29 06:59:00,58.8,57.0,30.10,ESE,105,2.0,2.0,95,0.13,,,0.41,weatherlink.com 1.10,2013-05-29 10:59:00,
2013-05-29 07:14:00,58.8,57.0,30.10,West,274,0.0,1.0,95,0.10,,,0.43,weatherlink.com 1.10,2013-05-29 11:14:00,
2013-05-29 07:29:00,59.2,58.0,30.10,East,86,0.0,2.0,95,0.06,,,0.44,weatherlink.com 1.10,2013-05-29 11:29:00,
2013-05-29 07:44:00,59.3,58.0,30.10,WNW,296,0.0,2.0,95,0.04,,,0.44,weatherlink.com 1.10,2013-05-29 11:44:00,
2013-05-29 07:59:00,59.5,58.0,30.09,ENE,65,1.0,3.0,95,0.03,,,0.44,weatherlink.com 1.10,2013-05-29 11:59:00,
2013-05-29 08:14:00,59.7,58.0,30.09,SE,134,1.0,3.0,95,0.01,,,0.44,weatherlink.com 1.10,2013-05-29 12:14:00,
2013-05-29 08:29:00,59.9,58.0,30.09,ESE,120,0.0,2.0,94,0.00,,,0.44,weatherlink.com 1.10,2013-05-29 12:29:00,
2013-05-29 08:44:00,60.1,58.0,30.09,SE,136,0.0,3.0,94,0.00,,,0.44,weatherlink.com 1.10,2013-05-29 12:44:00,
2013-05-29 08:59:00,60.1,58.0,30.09,SW,233,2.0,2.0,94,0.00,,,0.44,weatherlink.com 1.10,2013-05-29 12:59:00,
2013-05-29 09:14:00,60.1,58.0,30.08,East,95,0.0,3.0,94,0.05,,,0.49,weatherlink.com 1.10,2013-05-29 13:14:00,
2013-05-29 09:29:00,60.4,59.0,30.08,WNW,294,0.0,2.0,94,0.05,,,0.49,weatherlink.com 1.10,2013-05-29 13:29:00,
2013-05-29 09:44:00,60.7,59.0,30.08,NNW,338,0.0,4.0,95,0.05,,,0.49,weatherlink.com 1.10,2013-05-29 13:44:00,
2013-05-29 09:59:00,60.8,59.0,30.08,SE,126,0.0,4.0,94,0.05,,,0.49,weatherlink.com 1.10,2013-05-29 13:59:00,
2013-05-29 10:14:00,61.0,59.0,30.08,East,96,0.0,2.0,93,0.00,,,0.49,weatherlink.com 1.10,2013-05-29 14:14:00,
2013-05-29 10:29:00,61.2,59.0,30.08,WSW,244,0.0,3.0,93,0.00,,,0.49,weatherlink.com 1.10,2013-05-29 14:29:00,
2013-05-29 10:44:00,61.4,59.0,30.08,SW,223,0.0,2.0,93,0.00,,,0.49,weatherlink.com 1.10,2013-05-29 14:44:00,
2013-05-29 10:59:00,61.8,60.0,30.09,West,259,1.0,2.0,93,0.00,,,0.49,weatherlink.com 1.10,2013-05-29 14:59:00,
2013-05-29 11:14:00,61.9,60.0,30.08,WSW,241,0.0,4.0,92,0.00,,,0.49,weatherlink.com 1.10,2013-05-29 15:14:00,
2013-05-29 11:29:00,62.2,60.0,30.08,WSW,250,1.0,2.0,92,0.00,,,0.49,weatherlink.com 1.10,2013-05-29 15:29:00,
2013-05-29 11:44:00,62.4,60.0,30.06,ESE,105,0.0,3.0,91,0.00,,,0.49,weatherlink.com 1.10,2013-05-29 15:44:00,
2013-05-29 11:59:00,63.0,60.0,30.05,ESE,106,0.0,5.0,91,0.00,,,0.49,weatherlink.com 1.10,2013-05-29 15:59:00,
2013-05-29 12:14:00,63.3,61.0,30.04,SSW,206,1.0,3.0,91,0.01,,,0.50,weatherlink.com 1.10,2013-05-29 16:14:00,
2013-05-29 12:29:00,63.2,61.0,30.02,SSE,155,3.0,6.0,91,0.01,,,0.50,weatherlink.com 1.10,2013-05-29 16:29:00,
2013-05-29 12:44:00,63.2,61.0,30.04,East,84,0.0,5.0,91,0.01,,,0.50,weatherlink.com 1.10,2013-05-29 16:44:00,
2013-05-29 12:59:00,63.2,61.0,30.04,West,277,0.0,3.0,91,0.01,,,0.50,weatherlink.com 1.10,2013-05-29 16:59:00,
2013-05-29 13:14:00,63.7,61.0,30.05,SSW,202,1.0,3.0,91,0.00,,,0.50,weatherlink.com 1.10,2013-05-29 17:14:00,
2013-05-29 13:29:00,64.1,62.0,30.06,SSW,213,1.0,2.0,91,0.00,,,0.50,weatherlink.com 1.10,2013-05-29 17:29:00,
2013-05-29 13:44:00,64.8,62.0,30.05,WSW,246,0.0,2.0,90,0.00,,,0.50,weatherlink.com 1.10,2013-05-29 17:44:00,
2013-05-29 13:59:00,65.1,62.0,30.04,West,268,1.0,2.0,89,0.00,,,0.50,weatherlink.com 1.10,2013-05-29 17:59:00,
2013-05-29 14:14:00,66.8,63.0,30.04,East,90,0.0,2.0,87,0.00,,,0.50,weatherlink.com 1.10,2013-05-29 18:14:00,
2013-05-29 14:29:00,67.7,63.0,30.04,ENE,69,0.0,4.0,84,0.00,,,0.50,weatherlink.com 1.10,2013-05-29 18:29:00,
2013-05-29 14:44:00,67.7,63.0,30.03,West,267,1.0,2.0,84,0.00,,,0.50,weatherlink.com 1.10,2013-05-29 18:44:00,
2013-05-29 14:59:00,68.6,63.0,30.02,ENE,78,0.0,3.0,82,0.00,,,0.50,weatherlink.com 1.10,2013-05-29 18:59:00,
2013-05-29 15:15:00,70.1,63.0,30.02,SW,226,0.0,2.0,79,0.00,,,0.50,weatherlink.com 1.10,2013-05-29 19:15:00,
2013-05-29 15:30:00,69.3,64.0,30.02,East,96,0.0,4.0,82,0.00,,,0.50,weatherlink.com 1.10,2013-05-29 19:30:00,
2013-05-29 15:45:00,70.3,64.0,30.01,ESE,103,1.0,5.0,79,0.00,,,0.50,weatherlink.com 1.10,2013-05-29 19:45:00,
2013-05-29 16:00:00,71.2,64.0,30.01,WSW,245,1.0,2.0,78,0.00,,,0.50,weatherlink.com 1.10,2013-05-29 20:00:00,
2013-05-29 16:15:00,71.6,64.0,30.02,West,260,0.0,2.0,77,0.00,,,0.50,weatherlink.com 1.10,2013-05-29 20:15:00,
2013-05-29 16:30:00,71.8,65.0,30.01,WNW,294,0.0,2.0,78,0.00,,,0.50,weatherlink.com 1.10,2013-05-29 20:30:00,
2013-05-29 16:45:00,71.2,65.0,30.01,North,350,0.0,2.0,80,0.00,,,0.50,weatherlink.com 1.10,2013-05-29 20:45:00,
2013-05-29 17:00:00,70.8,64.0,30.02,NNW,343,0.0,2.0,79,0.00,,,0.50,weatherlink.com 1.10,2013-05-29 21:00:00,
2013-05-29 17:15:00,70.4,64.0,30.02,NNW,331,1.0,2.0,81,0.00,,,0.50,weatherlink.com 1.10,2013-05-29 21:15:00,
2013-05-29 17:30:00,70.5,65.0,30.01,NNE,31,0.0,1.0,82,0.00,,,0.50,weatherlink.com 1.10,2013-05-29 21:30:00,
2013-05-29 17:45:00,70.8,64.0,30.01,NNW,339,0.0,2.0,80,0.00,,,0.50,weatherlink.com 1.10,2013-05-29 21:45:00,
2013-05-29 18:00:00,70.9,64.0,30.00,NNW,342,0.0,2.0,79,0.00,,,0.50,weatherlink.com 1.10,2013-05-29 22:00:00,
2013-05-29 18:15:00,71.0,65.0,30.00,NNW,340,0.0,2.0,80,0.00,,,0.50,weatherlink.com 1.10,2013-05-29 22:15:00,
2013-05-29 18:30:00,70.5,64.0,30.00,NNW,330,0.0,2.0,80,0.00,,,0.50,weatherlink.com 1.10,2013-05-29 22:30:00,
2013-05-29 18:45:00,70.4,64.0,29.99,SE,128,1.0,2.0,80,0.00,,,0.50,weatherlink.com 1.10,2013-05-29 22:45:00,
2013-05-29 19:00:00,69.5,63.0,29.99,ESE,105,4.0,9.0,79,0.00,,,0.50,weatherlink.com 1.10,2013-05-29 23:00:00,
2013-05-29 19:15:00,67.6,62.0,29.99,ESE,123,0.0,5.0,82,0.00,,,0.50,weatherlink.com 1.10,2013-05-29 23:15:00,
2013-05-29 19:30:00,66.8,62.0,29.99,ESE,111,0.0,3.0,83,0.00,,,0.50,weatherlink.com 1.10,2013-05-29 23:30:00,
2013-05-29 19:45:00,65.8,61.0,29.98,SE,132,0.0,2.0,85,0.00,,,0.50,weatherlink.com 1.10,2013-05-29 23:45:00,
2013-05-29 20:00:00,65.2,61.0,29.98,East,82,0.0,3.0,86,0.00,,,0.50,weatherlink.com 1.10,2013-05-30 00:00:00,
2013-05-29 20:15:00,65.0,61.0,29.99,SE,144,0.0,1.0,87,0.00,,,0.50,weatherlink.com 1.10,2013-05-30 00:15:00,
2013-05-29 20:30:00,64.9,61.0,29.99,ESE,115,0.0,1.0,87,0.00,,,0.50,weatherlink.com 1.10,2013-05-30 00:30:00,
2013-05-29 20:45:00,64.8,61.0,29.99,SE,134,0.0,1.0,88,0.00,,,0.50,weatherlink.com 1.10,2013-05-30 00:45:00,
2013-05-29 21:00:00,64.8,61.0,29.98,SE,126,0.0,0.0,88,0.00,,,0.50,weatherlink.com 1.10,2013-05-30 01:00:00,
2013-05-29 21:15:00,64.6,61.0,29.99,SE,127,0.0,0.0,88,0.00,,,0.50,weatherlink.com 1.10,2013-05-30 01:15:00,
2013-05-29 21:30:00,64.5,61.0,29.98,SE,128,0.0,1.0,89,0.00,,,0.50,weatherlink.com 1.10,2013-05-30 01:30:00,
2013-05-29 21:45:00,64.5,61.0,29.99,SE,128,0.0,0.0,89,0.00,,,0.50,weatherlink.com 1.10,2013-05-30 01:45:00,
2013-05-29 22:00:00,64.5,61.0,29.98,ENE,71,0.0,1.0,89,0.00,,,0.50,weatherlink.com 1.10,2013-05-30 02:00:00,
2013-05-29 22:15:00,64.3,61.0,30.01,SE,140,0.0,4.0,90,0.11,,,0.62,weatherlink.com 1.10,2013-05-30 02:15:00,
2013-05-29 22:30:00,63.8,62.0,30.01,WSW,254,1.0,2.0,93,0.43,,,0.93,weatherlink.com 1.10,2013-05-30 02:30:00,
2013-05-29 22:45:00,63.6,62.0,30.02,ENE,64,3.0,5.0,93,0.51,,,1.01,weatherlink.com 1.10,2013-05-30 02:45:00,
2013-05-29 23:00:00,63.2,62.0,30.03,SW,229,0.0,1.0,94,0.58,,,1.08,weatherlink.com 1.10,2013-05-30 03:00:00,
2013-05-29 23:15:00,63.0,61.0,30.02,ESE,116,0.0,1.0,94,0.52,,,1.14,weatherlink.com 1.10,2013-05-30 03:15:00,
2013-05-29 23:30:00,62.9,62.0,29.99,SW,232,0.0,2.0,95,0.25,,,1.18,weatherlink.com 1.10,2013-05-30 03:30:00,
2013-05-29 23:45:00,63.1,62.0,30.00,WSW,246,0.0,3.0,95,0.17,,,1.18,weatherlink.com 1.10,2013-05-30 03:45:00,